RYR94DX LIPH-EPKK
Flight info
| Callsign | RYR94DX |
|---|---|
| Flight time | N/A |
| Altitude | 35000 |
| Route | ROKIB DCT LAMPO DCT VESAL DCT MALUG DCT INGID DCT STO DCT LEDVA DCT NETIR |
| Aircraft | B38M/M-SDE1FGHILORVWXY/HB1 |
Departure
| Time | 2026-05-08 17:53 |
|---|---|
| Airport | Treviso Airport (LIPH) |
Arrival
| Time | N/A |
|---|---|
| Airport | Kraków John Paul II International Airport (EPKK) |
| Time | Latitude | Longitude | Altitude | Speed | Heading |
|---|---|---|---|---|---|
| 2026-05-08 17:13 | 45.65365 | 12.20376 | 65 ft | 0 kts | 339° |
| 2026-05-08 17:40 | 45.65359 | 12.20380 | 57 ft | 4 kts | 338° |
| 2026-05-08 17:40 | 45.65334 | 12.20393 | 58 ft | 4 kts | 342° |
| 2026-05-08 17:40 | 45.65315 | 12.20399 | 61 ft | 2 kts | 13° |
| 2026-05-08 17:41 | 45.65306 | 12.20390 | 60 ft | 2 kts | 59° |
| 2026-05-08 17:41 | 45.65301 | 12.20376 | 59 ft | 2 kts | 70° |
| 2026-05-08 17:41 | 45.65300 | 12.20371 | 60 ft | 0 kts | 71° |
| 2026-05-08 17:50 | 45.65301 | 12.20376 | 59 ft | 2 kts | 71° |
| 2026-05-08 17:51 | 45.65308 | 12.20405 | 61 ft | 4 kts | 70° |
| 2026-05-08 17:51 | 45.65322 | 12.20457 | 62 ft | 7 kts | 69° |
| 2026-05-08 17:51 | 45.65342 | 12.20534 | 60 ft | 10 kts | 69° |
| 2026-05-08 17:51 | 45.65369 | 12.20635 | 61 ft | 12 kts | 69° |
| 2026-05-08 17:52 | 45.65354 | 12.20733 | 64 ft | 10 kts | 147° |
| 2026-05-08 17:52 | 45.65306 | 12.20760 | 64 ft | 8 kts | 159° |
| 2026-05-08 17:52 | 45.65206 | 12.20745 | 65 ft | 8 kts | 250° |
| 2026-05-08 17:53 | 45.65160 | 12.20569 | 60 ft | 48 kts | 249° |
| 2026-05-08 17:53 | 45.64951 | 12.19781 | 58 ft | 119 kts | 249° |
| 2026-05-08 17:53 | 45.64589 | 12.18426 | 140 ft | 164 kts | 249° |
| 2026-05-08 17:53 | 45.64182 | 12.16928 | 923 ft | 157 kts | 244° |
| 2026-05-08 17:54 | 45.63729 | 12.15474 | 1588 ft | 165 kts | 246° |
| 2026-05-08 17:54 | 45.63248 | 12.13891 | 2115 ft | 183 kts | 246° |
| 2026-05-08 17:54 | 45.62707 | 12.12118 | 2557 ft | 209 kts | 246° |
| 2026-05-08 17:54 | 45.62082 | 12.10097 | 3071 ft | 233 kts | 246° |
| 2026-05-08 17:55 | 45.61374 | 12.07903 | 3679 ft | 253 kts | 245° |
| 2026-05-08 17:55 | 45.60607 | 12.05542 | 4362 ft | 268 kts | 245° |
| 2026-05-08 17:55 | 45.59832 | 12.03156 | 5369 ft | 269 kts | 245° |
| 2026-05-08 17:55 | 45.59069 | 12.00683 | 6290 ft | 274 kts | 251° |
| 2026-05-08 17:56 | 45.58720 | 11.98004 | 7190 ft | 278 kts | 269° |
| 2026-05-08 17:56 | 45.59024 | 11.95274 | 8071 ft | 282 kts | 290° |
| 2026-05-08 17:56 | 45.60065 | 11.92895 | 8946 ft | 286 kts | 315° |
| 2026-05-08 17:56 | 45.61689 | 11.91243 | 9802 ft | 290 kts | 334° |
| 2026-05-08 17:57 | 45.63526 | 11.89943 | 10501 ft | 300 kts | 334° |
| 2026-05-08 17:57 | 45.65465 | 11.88582 | 10904 ft | 320 kts | 334° |
| 2026-05-08 17:57 | 45.67535 | 11.87158 | 11306 ft | 338 kts | 334° |
| 2026-05-08 17:57 | 45.69694 | 11.85692 | 11879 ft | 349 kts | 334° |
| 2026-05-08 17:58 | 45.71901 | 11.84206 | 12734 ft | 351 kts | 334° |
| 2026-05-08 17:58 | 45.74111 | 11.82687 | 13506 ft | 356 kts | 334° |
| 2026-05-08 17:58 | 45.76355 | 11.81134 | 14269 ft | 359 kts | 334° |
| 2026-05-08 17:58 | 45.78592 | 11.79589 | 15007 ft | 362 kts | 333° |
| 2026-05-08 17:59 | 45.80867 | 11.78019 | 15747 ft | 364 kts | 333° |
| 2026-05-08 17:59 | 45.83159 | 11.76437 | 16459 ft | 368 kts | 333° |
| 2026-05-08 17:59 | 45.85475 | 11.74835 | 17158 ft | 371 kts | 333° |
| 2026-05-08 17:59 | 45.87815 | 11.73217 | 17852 ft | 374 kts | 333° |
| 2026-05-08 18:00 | 45.89380 | 11.72134 | 18297 ft | 377 kts | 333° |
| 2026-05-08 18:00 | 45.95237 | 11.69466 | 19606 ft | 387 kts | 359° |
| 2026-05-08 18:00 | 45.97938 | 11.69601 | 20116 ft | 392 kts | 0° |
| 2026-05-08 18:01 | 46.00682 | 11.69685 | 20647 ft | 396 kts | 0° |
| 2026-05-08 18:01 | 46.02514 | 11.69757 | 21004 ft | 398 kts | 0° |
| 2026-05-08 18:01 | 46.06204 | 11.69928 | 21697 ft | 403 kts | 0° |
| 2026-05-08 18:01 | 46.09013 | 11.70069 | 22253 ft | 406 kts | 0° |
| 2026-05-08 18:02 | 46.11858 | 11.70214 | 22777 ft | 410 kts | 0° |
| 2026-05-08 18:02 | 46.13784 | 11.70313 | 23135 ft | 412 kts | 0° |
| 2026-05-08 18:02 | 46.16678 | 11.70464 | 23657 ft | 416 kts | 0° |
| 2026-05-08 18:02 | 46.19536 | 11.70614 | 24118 ft | 419 kts | 0° |
| 2026-05-08 18:03 | 46.22465 | 11.70768 | 24588 ft | 422 kts | 0° |
| 2026-05-08 18:03 | 46.25365 | 11.70921 | 25049 ft | 425 kts | 0° |
| 2026-05-08 18:03 | 46.28321 | 11.71078 | 25500 ft | 427 kts | 0° |
| 2026-05-08 18:03 | 46.31312 | 11.71236 | 25949 ft | 430 kts | 0° |
| 2026-05-08 18:04 | 46.34325 | 11.71573 | 26368 ft | 435 kts | 9° |
| 2026-05-08 18:04 | 46.37203 | 11.73002 | 26816 ft | 440 kts | 27° |
| 2026-05-08 18:04 | 46.39693 | 11.75618 | 27217 ft | 446 kts | 45° |
| 2026-05-08 18:04 | 46.41599 | 11.79175 | 27591 ft | 449 kts | 60° |
| 2026-05-08 18:05 | 46.43063 | 11.83187 | 27979 ft | 452 kts | 63° |
| 2026-05-08 18:05 | 46.44555 | 11.87172 | 28336 ft | 456 kts | 61° |
| 2026-05-08 18:05 | 46.46077 | 11.91236 | 28744 ft | 459 kts | 62° |